Time;durP1;ratioP1;P1;durP2;ratioP2;P2;SDS_P1;SDS_P2;PMS_P1;PMS_P2;Temp;Humidity;BMP_temperature;BMP_pressure;BME280_temperature;BME280_humidity;BME280_pressure;Samples;Min_cycle;Max_cycle;Signal;HPM_P1;HPM_P2
2023/02/25 00:00:29;;;;;;;;;;;;;;;11.60;71.39;100489.31;1272816;23;646;-65
2023/02/25 00:01:19;;;;;;;;;;;;;;;11.60;71.34;100490.16;1271827;23;637;-63
2023/02/25 00:02:10;;;;;;;;;;;;;;;11.58;71.39;100497.44;1271343;23;658;-64
2023/02/25 00:03:00;;;;;;;;;;;;;;;11.57;71.30;100501.06;1270581;23;1928;-63
2023/02/25 00:03:51;;;;;;;;;;;;;;;11.58;71.52;100497.44;1272262;23;642;-62
2023/02/25 00:04:42;;;;;;;;;;;;;;;11.55;71.54;100492.31;1272327;23;732;-64
2023/02/25 00:05:32;;;;;;;;;;;;;;;11.58;71.49;100496.56;1270842;23;756;-62
2023/02/25 00:06:23;;;;;;;;;;;;;;;11.58;70.99;100502.75;1271762;23;666;-65
2023/02/25 00:07:14;;;;;;;;;;;;;;;11.59;70.83;100498.28;1271956;23;650;-63
2023/02/25 00:08:05;;;;;;;;;;;;;;;11.58;71.34;100500.09;1270768;23;646;-63
2023/02/25 00:08:55;;;;;;;;;;;;;;;11.58;71.18;100497.44;1271891;23;626;-64
2023/02/25 00:09:45;;;;;;;;;;;;;;;11.59;71.25;100490.28;1270642;23;650;-63
2023/02/25 00:10:36;;;;;;;;;;;;;;;11.57;71.16;100485.03;1271805;23;603;-64
2023/02/25 00:11:27;;;;;;;;;;;;;;;11.54;70.96;100477.25;1270654;23;659;-63
2023/02/25 00:12:17;;;;;;;;;;;;;;;11.53;71.20;100472.88;1271345;23;689;-63
2023/02/25 00:13:07;;;;;;;;;;;;;;;11.55;71.40;100478.13;1271648;23;634;-65
2023/02/25 00:13:58;;;;;;;;;;;;;;;11.57;71.24;100481.53;1271634;23;645;-64
2023/02/25 00:14:48;;;;;;;;;;;;;;;11.53;71.44;100475.56;1272712;23;685;-64
2023/02/25 00:15:40;;;;;;;;;;;;;;;11.53;70.87;100472.88;1271736;23;692;-64
2023/02/25 00:16:31;;;;;;;;;;;;;;;11.55;71.35;100475.44;1270734;23;613;-63
2023/02/25 00:17:22;;;;;;;;;;;;;;;11.55;71.34;100478.97;1270814;23;676;-63
2023/02/25 00:18:12;;;;;;;;;;;;;;;11.57;71.43;100478.84;1272733;23;681;-64
2023/02/25 00:19:02;;;;;;;;;;;;;;;11.55;71.07;100480.78;1272592;23;696;-63
2023/02/25 00:19:56;;;;;;;;;;;;;;;11.56;70.51;100485.16;1271840;23;664;-64
2023/02/25 00:20:46;;;;;;;;;;;;;;;11.54;70.81;100490.59;1271629;23;1158;-64
2023/02/25 00:21:37;;;;;;;;;;;;;;;11.55;71.34;100486.97;1270757;23;651;-64
2023/02/25 00:22:27;;;;;;;;;;;;;;;11.55;71.03;100486.13;1272619;23;727;-63
2023/02/25 00:23:17;;;;;;;;;;;;;;;11.56;71.14;100490.50;1271622;23;641;-64
2023/02/25 00:24:08;;;;;;;;;;;;;;;11.55;70.76;100484.31;1271642;23;648;-64
2023/02/25 00:24:58;;;;;;;;;;;;;;;11.55;71.19;100486.13;1270672;23;607;-65
2023/02/25 00:25:49;;;;;;;;;;;;;;;11.56;70.74;100490.50;1271757;23;610;-64
2023/02/25 00:26:39;;;;;;;;;;;;;;;11.57;71.25;100484.19;1272720;23;622;-64
2023/02/25 00:27:30;;;;;;;;;;;;;;;11.55;70.63;100483.44;1271605;23;622;-64
2023/02/25 00:28:20;;;;;;;;;;;;;;;11.55;70.67;100486.13;1271802;23;665;-64
2023/02/25 00:29:10;;;;;;;;;;;;;;;11.56;70.73;100482.50;1272455;23;684;-64
2023/02/25 00:30:01;;;;;;;;;;;;;;;11.55;71.07;100486.13;1271915;23;649;-64
2023/02/25 00:30:51;;;;;;;;;;;;;;;11.55;70.78;100483.44;1271588;23;614;-64
2023/02/25 00:31:42;;;;;;;;;;;;;;;11.55;70.72;100486.13;1271666;23;661;-64
2023/02/25 00:32:32;;;;;;;;;;;;;;;11.56;70.66;100479.81;1271973;23;629;-65
2023/02/25 00:33:23;;;;;;;;;;;;;;;11.54;70.65;100487.09;1271638;23;665;-64
2023/02/25 00:34:14;;;;;;;;;;;;;;;11.53;70.54;100483.56;1271625;23;684;-64
2023/02/25 00:35:04;;;;;;;;;;;;;;;11.53;71.27;100488.06;1271226;23;670;-64
2023/02/25 00:35:55;;;;;;;;;;;;;;;11.53;70.42;100493.38;1270780;23;578;-64
2023/02/25 00:36:45;;;;;;;;;;;;;;;11.53;71.16;100483.56;1271716;23;716;-64
2023/02/25 00:37:35;;;;;;;;;;;;;;;11.53;71.40;100488.91;1271609;23;634;-65
2023/02/25 00:38:26;;;;;;;;;;;;;;;11.54;70.60;100492.44;1272588;23;831;-64
2023/02/25 00:39:17;;;;;;;;;;;;;;;11.53;71.36;100491.56;1271785;23;653;-65
2023/02/25 00:40:13;;;;;;;;;;;;;;;11.53;70.99;100496.91;1272516;23;681;-64
2023/02/25 00:41:07;;;;;;;;;;;;;;;11.52;71.47;100497.88;1271655;23;662;-64
2023/02/25 00:41:58;;;;;;;;;;;;;;;11.53;70.96;100496.06;1270856;23;685;-64
2023/02/25 00:42:48;;;;;;;;;;;;;;;11.53;71.50;100496.06;1271839;23;1934;-64
2023/02/25 00:43:39;;;;;;;;;;;;;;;11.51;70.35;100498.84;1271645;23;614;-64
2023/02/25 00:44:29;;;;;;;;;;;;;;;11.51;70.41;100500.66;1271820;23;642;-64
2023/02/25 00:45:19;;;;;;;;;;;;;;;11.52;70.50;100497.03;1270794;23;713;-64
2023/02/25 00:46:10;;;;;;;;;;;;;;;11.51;70.58;100496.16;1271760;23;619;-64
2023/02/25 00:47:00;;;;;;;;;;;;;;;11.50;70.50;100499.78;1271514;23;649;-64
2023/02/25 00:47:51;;;;;;;;;;;;;;;11.49;71.39;100498.94;1271658;23;636;-64
2023/02/25 00:48:41;;;;;;;;;;;;;;;11.49;70.85;100498.94;1272594;23;634;-64
2023/02/25 00:49:32;;;;;;;;;;;;;;;11.51;71.03;100496.16;1272501;23;592;-65
2023/02/25 00:50:22;;;;;;;;;;;;;;;11.51;70.42;100501.50;1271838;23;700;-64
2023/02/25 00:51:12;;;;;;;;;;;;;;;11.51;70.67;100508.66;1270575;23;627;-64
2023/02/25 00:52:03;;;;;;;;;;;;;;;11.51;71.03;100508.66;1272526;23;654;-64
2023/02/25 00:52:53;;;;;;;;;;;;;;;11.51;71.31;100511.31;1272485;23;692;-64
2023/02/25 00:53:44;;;;;;;;;;;;;;;11.49;70.79;100500.75;1271549;23;637;-65
2023/02/25 00:54:34;;;;;;;;;;;;;;;11.48;70.58;100509.72;1272256;23;692;-65
2023/02/25 00:55:32;;;;;;;;;;;;;;;11.49;70.60;100509.63;1270337;23;677;-63
2023/02/25 00:56:22;;;;;;;;;;;;;;;11.48;70.58;100494.56;1271152;23;694;-64
2023/02/25 00:57:12;;;;;;;;;;;;;;;11.49;71.17;100498.09;1271535;23;631;-64
2023/02/25 00:58:03;;;;;;;;;;;;;;;11.48;70.76;100504.41;1271710;23;892;-64
2023/02/25 00:58:53;;;;;;;;;;;;;;;11.47;71.35;100508.03;1271921;23;649;-64
2023/02/25 00:59:44;;;;;;;;;;;;;;;11.45;70.83;100496.66;1271596;23;662;-64
2023/02/25 01:00:34;;;;;;;;;;;;;;;11.47;71.25;100505.34;1272851;23;637;-63
2023/02/25 01:01:25;;;;;;;;;;;;;;;11.46;70.68;100506.34;1270620;23;642;-63
2023/02/25 01:02:15;;;;;;;;;;;;;;;11.47;70.77;100505.34;1271844;23;661;-63
2023/02/25 01:03:05;;;;;;;;;;;;;;;11.47;71.38;100502.69;1270575;23;1868;-63
2023/02/25 01:03:56;;;;;;;;;;;;;;;11.47;71.18;100492.00;1271617;23;617;-64
2023/02/25 01:04:46;;;;;;;;;;;;;;;11.48;71.37;100507.91;1271791;23;630;-64
2023/02/25 01:05:37;;;;;;;;;;;;;;;11.47;70.77;100505.34;1271608;23;654;-64
2023/02/25 01:06:27;;;;;;;;;;;;;;;11.47;71.30;100506.22;1271789;23;685;-64
2023/02/25 01:07:19;;;;;;;;;;;;;;;11.48;71.41;100502.56;1271623;23;623;-64
2023/02/25 01:08:10;;;;;;;;;;;;;;;11.46;71.42;100503.69;1272544;23;645;-64
2023/02/25 01:09:00;;;;;;;;;;;;;;;11.44;71.32;100509.13;1271725;23;638;-64
2023/02/25 01:09:51;;;;;;;;;;;;;;;11.43;70.98;100503.91;1271419;23;683;-64
2023/02/25 01:10:41;;;;;;;;;;;;;;;11.44;71.39;100508.28;1271704;23;633;-64
2023/02/25 01:11:31;;;;;;;;;;;;;;;11.45;71.01;100518.84;1272515;23;727;-64
2023/02/25 01:12:22;;;;;;;;;;;;;;;11.46;70.53;100509.84;1271646;23;622;-64
2023/02/25 01:13:12;;;;;;;;;;;;;;;11.46;70.95;100506.34;1271860;23;670;-64
2023/02/25 01:14:03;;;;;;;;;;;;;;;11.45;71.27;100508.16;1271678;23;654;-65
2023/02/25 01:14:53;;;;;;;;;;;;;;;11.46;71.30;100514.34;1271920;23;673;-65
2023/02/25 01:15:43;;;;;;;;;;;;;;;11.46;71.45;100511.69;1272032;23;1085;-64
2023/02/25 01:16:34;;;;;;;;;;;;;;;11.46;70.50;100509.03;1272121;23;662;-64
2023/02/25 01:17:24;;;;;;;;;;;;;;;11.46;71.31;100509.84;1272713;23;625;-65
2023/02/25 01:18:17;;;;;;;;;;;;;;;11.46;70.58;100517.84;1271713;23;654;-64
2023/02/25 01:19:07;;;;;;;;;;;;;;;11.46;71.28;100515.19;1272492;23;633;-64
2023/02/25 01:19:58;;;;;;;;;;;;;;;11.45;70.60;100513.50;1272410;23;627;-64
2023/02/25 01:20:48;;;;;;;;;;;;;;;11.44;70.92;100511.81;1271559;23;1064;-64
2023/02/25 01:21:38;;;;;;;;;;;;;;;11.43;70.45;100510.09;1272307;23;649;-64
2023/02/25 01:22:29;;;;;;;;;;;;;;;11.43;70.94;100507.44;1271654;23;622;-64
2023/02/25 01:23:19;;;;;;;;;;;;;;;11.44;70.60;100509.13;1272538;23;1905;-64
2023/02/25 01:24:10;;;;;;;;;;;;;;;11.44;71.11;100514.47;1271524;23;646;-64
2023/02/25 01:25:00;;;;;;;;;;;;;;;11.43;71.42;100515.44;1271713;23;658;-64
2023/02/25 01:25:50;;;;;;;;;;;;;;;11.45;71.24;100521.50;1270507;23;701;-64
2023/02/25 01:26:41;;;;;;;;;;;;;;;11.43;71.07;100520.75;1271560;23;646;-64
2023/02/25 01:27:31;;;;;;;;;;;;;;;11.43;71.22;100518.09;1271817;23;623;-64
2023/02/25 01:28:22;;;;;;;;;;;;;;;11.43;70.55;100526.09;1271607;23;662;-64
2023/02/25 01:29:12;;;;;;;;;;;;;;;11.44;71.20;100524.28;1271321;23;728;-64
2023/02/25 01:30:03;;;;;;;;;;;;;;;11.43;71.39;100526.09;1270625;23;651;-64
2023/02/25 01:30:53;;;;;;;;;;;;;;;11.43;71.01;100519.91;1271661;23;618;-64
2023/02/25 01:31:43;;;;;;;;;;;;;;;11.42;71.16;100527.06;1270551;23;650;-63
2023/02/25 01:32:34;;;;;;;;;;;;;;;11.41;70.61;100527.19;1271669;23;635;-63
2023/02/25 01:33:24;;;;;;;;;;;;;;;11.42;71.24;100523.53;1271933;23;614;-64
2023/02/25 01:34:15;;;;;;;;;;;;;;;11.41;70.61;100524.50;1270737;23;654;-64
2023/02/25 01:35:05;;;;;;;;;;;;;;;11.43;70.98;100538.59;1272600;23;657;-64
2023/02/25 01:35:56;;;;;;;;;;;;;;;11.43;71.30;100533.25;1271929;23;696;-65
2023/02/25 01:36:46;;;;;;;;;;;;;;;11.42;71.38;100532.41;1270506;23;630;-65
2023/02/25 01:37:36;;;;;;;;;;;;;;;11.41;71.14;100538.69;1270641;23;764;-64
2023/02/25 01:38:27;;;;;;;;;;;;;;;11.41;70.66;100541.38;1271729;23;599;-65
2023/02/25 01:39:17;;;;;;;;;;;;;;;11.41;70.85;100549.38;1271814;23;641;-65
2023/02/25 01:40:08;;;;;;;;;;;;;;;11.41;71.31;100541.38;1271541;23;654;-65
2023/02/25 01:40:59;;;;;;;;;;;;;;;11.41;70.61;100520.03;1270646;23;638;-65
2023/02/25 01:41:52;;;;;;;;;;;;;;;11.41;71.33;100512.03;1272631;23;618;-65
2023/02/25 01:42:42;;;;;;;;;;;;;;;11.41;71.08;100511.16;1270371;23;689;-65
2023/02/25 01:43:33;;;;;;;;;;;;;;;11.40;70.66;100520.13;1271022;23;673;-64
2023/02/25 01:44:24;;;;;;;;;;;;;;;11.41;70.69;100520.03;1271597;23;677;-64
2023/02/25 01:45:14;;;;;;;;;;;;;;;11.40;70.44;100509.47;1271649;23;709;-64
2023/02/25 01:46:05;;;;;;;;;;;;;;;11.41;71.17;100513.84;1270786;23;638;-64
2023/02/25 01:46:56;;;;;;;;;;;;;;;11.39;71.43;100508.59;1272386;23;610;-64
2023/02/25 01:47:46;;;;;;;;;;;;;;;11.39;70.94;100503.28;1271746;23;642;-64
2023/02/25 01:48:36;;;;;;;;;;;;;;;11.39;71.19;100505.09;1270571;23;655;-64
2023/02/25 01:49:27;;;;;;;;;;;;;;;11.39;70.87;100513.94;1272492;23;650;-64
2023/02/25 01:50:18;;;;;;;;;;;;;;;11.40;71.07;100514.81;1271608;23;618;-64
2023/02/25 01:51:09;;;;;;;;;;;;;;;11.39;70.96;100513.94;1272063;23;622;-64
2023/02/25 01:51:59;;;;;;;;;;;;;;;11.39;70.82;100513.94;1272133;23;644;-64
2023/02/25 01:52:49;;;;;;;;;;;;;;;11.39;71.27;100515.75;1272368;23;643;-64
2023/02/25 01:53:40;;;;;;;;;;;;;;;11.40;71.21;100510.31;1271921;23;594;-64
2023/02/25 01:54:30;;;;;;;;;;;;;;;11.39;71.18;100513.94;1272728;23;669;-64
2023/02/25 01:55:21;;;;;;;;;;;;;;;11.40;70.44;100515.66;1271051;23;618;-64
2023/02/25 01:56:11;;;;;;;;;;;;;;;11.40;71.15;100512.97;1272118;23;657;-64
2023/02/25 01:57:02;;;;;;;;;;;;;;;11.39;71.38;100510.44;1270946;23;619;-65
2023/02/25 01:57:52;;;;;;;;;;;;;;;11.38;71.10;100516.72;1271941;23;646;-65
2023/02/25 01:58:42;;;;;;;;;;;;;;;11.39;70.75;100513.09;1270882;23;633;-64
2023/02/25 01:59:33;;;;;;;;;;;;;;;11.39;70.61;100511.28;1272861;23;634;-64
2023/02/25 02:00:26;;;;;;;;;;;;;;;11.38;70.60;100514.91;1272976;23;665;-64
2023/02/25 02:01:16;;;;;;;;;;;;;;;11.38;70.56;100509.56;1272387;23;622;-64
2023/02/25 02:02:07;;;;;;;;;;;;;;;11.38;70.47;100517.56;1272336;23;657;-64
2023/02/25 02:02:57;;;;;;;;;;;;;;;11.37;71.28;100509.69;1272446;23;1884;-65
2023/02/25 02:03:47;;;;;;;;;;;;;;;11.37;71.11;100509.69;1270761;23;607;-64
2023/02/25 02:04:38;;;;;;;;;;;;;;;11.38;70.44;100511.38;1271951;23;658;-64
2023/02/25 02:05:28;;;;;;;;;;;;;;;11.38;71.12;100501.56;1272532;23;645;-64
2023/02/25 02:06:19;;;;;;;;;;;;;;;11.37;71.03;100505.19;1270605;23;642;-64
2023/02/25 02:07:09;;;;;;;;;;;;;;;11.38;71.30;100504.25;1271377;23;700;-64
2023/02/25 02:08:00;;;;;;;;;;;;;;;11.37;70.61;100505.19;1272854;23;561;-64
2023/02/25 02:08:50;;;;;;;;;;;;;;;11.36;71.27;100499.97;1272843;23;652;-64
2023/02/25 02:09:54;;;;;;;;;;;;;;;11.37;70.98;100504.34;1272221;23;669;-64
2023/02/25 02:10:45;;;;;;;;;;;;;;;11.37;71.22;100510.53;1270970;23;801;-64
2023/02/25 02:11:35;;;;;;;;;;;;;;;11.37;71.32;100499.88;1272009;23;654;-65
2023/02/25 02:12:26;;;;;;;;;;;;;;;11.36;70.68;100502.66;1272482;23;633;-64
2023/02/25 02:13:16;;;;;;;;;;;;;;;11.37;71.40;100501.69;1270827;23;645;-65
2023/02/25 02:14:06;;;;;;;;;;;;;;;11.37;70.66;100502.53;1271557;23;827;-64
2023/02/25 02:14:57;;;;;;;;;;;;;;;11.36;71.10;100503.50;1271823;23;614;-64
2023/02/25 02:15:47;;;;;;;;;;;;;;;11.36;70.81;100508.84;1272135;23;630;-64
2023/02/25 02:16:38;;;;;;;;;;;;;;;11.36;70.64;100502.66;1271109;23;635;-64
2023/02/25 02:17:28;;;;;;;;;;;;;;;11.34;70.71;100491.22;1272098;23;626;-64
2023/02/25 02:18:19;;;;;;;;;;;;;;;11.34;70.81;100493.91;1270917;23;645;-64
2023/02/25 02:19:09;;;;;;;;;;;;;;;11.34;71.06;100501.91;1271976;23;643;-64
2023/02/25 02:19:59;;;;;;;;;;;;;;;11.35;71.03;100499.13;1270808;23;648;-64
2023/02/25 02:20:50;;;;;;;;;;;;;;;11.34;70.54;100497.41;1272516;23;1256;-64
2023/02/25 02:21:43;;;;;;;;;;;;;;;11.35;70.95;100501.78;1272202;23;622;-64
2023/02/25 02:22:34;;;;;;;;;;;;;;;11.35;70.56;100499.13;1272265;23;670;-64
2023/02/25 02:23:24;;;;;;;;;;;;;;;11.36;70.44;100502.66;1272995;23;750;-63
2023/02/25 02:24:15;;;;;;;;;;;;;;;11.34;70.79;100502.75;1271758;23;618;-63
2023/02/25 02:25:05;;;;;;;;;;;;;;;11.35;71.41;100498.28;1272041;23;632;-63
2023/02/25 02:25:55;;;;;;;;;;;;;;;11.35;70.76;100501.78;1272212;23;610;-63
2023/02/25 02:26:46;;;;;;;;;;;;;;;11.33;71.18;100495.72;1271139;23;626;-63
2023/02/25 02:27:38;;;;;;;;;;;;;;;11.33;70.66;100500.19;1272137;23;669;-63
2023/02/25 02:28:28;;;;;;;;;;;;;;;11.33;71.28;100503.72;1272166;23;696;-64
2023/02/25 02:29:19;;;;;;;;;;;;;;;11.32;70.61;100502.00;1271701;23;654;-64
2023/02/25 02:30:09;;;;;;;;;;;;;;;11.31;70.50;100505.63;1272950;23;669;-64
2023/02/25 02:30:59;;;;;;;;;;;;;;;11.32;71.29;100496.69;1272184;23;641;-64
2023/02/25 02:31:50;;;;;;;;;;;;;;;11.32;71.28;100496.69;1271897;23;634;-63
2023/02/25 02:32:40;;;;;;;;;;;;;;;11.32;71.14;100498.50;1272166;23;670;-64
2023/02/25 02:33:31;;;;;;;;;;;;;;;11.32;70.45;100503.81;1270842;23;607;-64
2023/02/25 02:34:21;;;;;;;;;;;;;;;11.30;70.60;100519.94;1272009;23;642;-63
2023/02/25 02:35:12;;;;;;;;;;;;;;;11.30;70.69;100522.59;1272784;23;641;-63
2023/02/25 02:36:02;;;;;;;;;;;;;;;11.30;71.34;100511.94;1271989;23;669;-63
2023/02/25 02:36:52;;;;;;;;;;;;;;;11.29;71.30;100515.56;1273002;23;614;-64
2023/02/25 02:37:43;;;;;;;;;;;;;;;11.32;70.82;100511.81;1271793;23;641;-63
2023/02/25 02:38:33;;;;;;;;;;;;;;;11.30;70.76;100508.41;1272090;23;662;-64
2023/02/25 02:39:24;;;;;;;;;;;;;;;11.29;70.67;100518.22;1271755;23;649;-63
2023/02/25 02:40:14;;;;;;;;;;;;;;;11.31;71.40;100508.31;1272032;23;674;-63
2023/02/25 02:41:04;;;;;;;;;;;;;;;11.31;71.27;100504.78;1270940;23;641;-63
2023/02/25 02:41:55;;;;;;;;;;;;;;;11.31;70.73;100518.13;1272247;23;653;-63
2023/02/25 02:42:45;;;;;;;;;;;;;;;11.30;71.05;100511.94;1272094;23;642;-63
2023/02/25 02:43:36;;;;;;;;;;;;;;;11.32;71.04;100510.00;1271792;23;650;-64
2023/02/25 02:44:26;;;;;;;;;;;;;;;11.30;70.39;100509.28;1271923;23;712;-63
2023/02/25 02:45:17;;;;;;;;;;;;;;;11.29;70.57;100507.56;1272690;23;696;-64
2023/02/25 02:46:07;;;;;;;;;;;;;;;11.30;70.51;100511.94;1271929;23;658;-64
2023/02/25 02:46:57;;;;;;;;;;;;;;;11.29;70.98;100510.22;1272908;23;633;-64
2023/02/25 02:47:48;;;;;;;;;;;;;;;11.29;70.50;100502.22;1271819;23;636;-63
2023/02/25 02:48:38;;;;;;;;;;;;;;;11.31;70.54;100508.31;1271977;23;645;-64
2023/02/25 02:49:29;;;;;;;;;;;;;;;11.29;70.56;100504.91;1270887;23;669;-64
2023/02/25 02:50:19;;;;;;;;;;;;;;;11.29;70.46;100518.22;1272926;23;701;-64
2023/02/25 02:51:09;;;;;;;;;;;;;;;11.29;70.39;100506.72;1272138;23;681;-64
2023/02/25 02:52:00;;;;;;;;;;;;;;;11.29;70.78;100517.38;1272329;23;653;-63
2023/02/25 02:52:50;;;;;;;;;;;;;;;11.28;70.97;100505.91;1271022;23;673;-63
2023/02/25 02:53:41;;;;;;;;;;;;;;;11.29;71.02;100507.56;1270816;23;625;-63
2023/02/25 02:54:31;;;;;;;;;;;;;;;11.30;70.52;100508.41;1271898;23;653;-63
2023/02/25 02:55:22;;;;;;;;;;;;;;;11.29;70.47;100501.38;1270729;23;682;-64
2023/02/25 02:56:12;;;;;;;;;;;;;;;11.28;70.56;100505.91;1271334;23;610;-64
2023/02/25 02:57:03;;;;;;;;;;;;;;;11.28;71.10;100505.91;1272789;23;661;-64
2023/02/25 02:57:53;;;;;;;;;;;;;;;11.28;71.05;100515.72;1271779;23;607;-64
2023/02/25 02:58:43;;;;;;;;;;;;;;;11.28;71.04;100500.56;1272039;23;657;-64
2023/02/25 02:59:34;;;;;;;;;;;;;;;11.27;70.32;100511.34;1270977;23;638;-64
2023/02/25 03:00:24;;;;;;;;;;;;;;;11.25;70.76;100506.13;1271951;23;649;-64
2023/02/25 03:01:15;;;;;;;;;;;;;;;11.27;70.86;100514.00;1272732;23;642;-64
2023/02/25 03:02:07;;;;;;;;;;;;;;;11.25;70.77;100513.25;1272092;23;642;-64
2023/02/25 03:02:58;;;;;;;;;;;;;;;11.25;70.58;100511.44;1270673;23;1881;-64
2023/02/25 03:03:48;;;;;;;;;;;;;;;11.22;71.14;100516.16;1271253;23;716;-64
2023/02/25 03:04:39;;;;;;;;;;;;;;;11.24;71.17;100507.06;1270800;23;607;-63
2023/02/25 03:05:29;;;;;;;;;;;;;;;11.23;70.45;100510.69;1271887;23;610;-64
2023/02/25 03:06:19;;;;;;;;;;;;;;;11.23;70.54;100508.03;1272849;23;926;-64
2023/02/25 03:07:10;;;;;;;;;;;;;;;11.22;70.53;100511.66;1271721;23;689;-64
2023/02/25 03:08:00;;;;;;;;;;;;;;;11.23;71.45;100513.38;1272835;23;711;-63
2023/02/25 03:08:51;;;;;;;;;;;;;;;11.24;71.38;100515.06;1271722;23;661;-63
2023/02/25 03:09:41;;;;;;;;;;;;;;;11.23;70.62;100510.69;1271989;23;578;-64
2023/02/25 03:10:32;;;;;;;;;;;;;;;11.25;70.36;100507.94;1272069;23;680;-64
2023/02/25 03:11:22;;;;;;;;;;;;;;;11.23;70.49;100509.84;1271914;23;626;-64
2023/02/25 03:12:12;;;;;;;;;;;;;;;11.24;70.67;100508.88;1271928;23;669;-64
2023/02/25 03:13:03;;;;;;;;;;;;;;;11.23;71.18;100509.84;1271826;23;760;-64
2023/02/25 03:13:53;;;;;;;;;;;;;;;11.24;71.33;100504.41;1272021;23;748;-64
2023/02/25 03:14:44;;;;;;;;;;;;;;;11.23;71.13;100507.19;1270824;23;938;-65
2023/02/25 03:15:34;;;;;;;;;;;;;;;11.22;70.54;100506.31;1271985;23;626;-64
2023/02/25 03:16:24;;;;;;;;;;;;;;;11.24;71.14;100506.22;1272095;23;681;-65
2023/02/25 03:17:15;;;;;;;;;;;;;;;11.24;70.75;100508.88;1271922;23;643;-63
2023/02/25 03:18:06;;;;;;;;;;;;;;;11.23;71.32;100513.38;1272031;23;630;-63
2023/02/25 03:18:56;;;;;;;;;;;;;;;11.23;71.18;100521.38;1272217;23;667;-64
2023/02/25 03:19:46;;;;;;;;;;;;;;;11.22;71.21;100510.81;1270916;23;638;-64
2023/02/25 03:20:37;;;;;;;;;;;;;;;11.23;71.01;100513.38;1270647;23;1063;-62
2023/02/25 03:21:27;;;;;;;;;;;;;;;11.22;70.94;100514.34;1271868;23;665;-64
2023/02/25 03:22:18;;;;;;;;;;;;;;;11.22;70.90;100514.34;1272736;23;684;-64
2023/02/25 03:23:08;;;;;;;;;;;;;;;11.25;71.36;100529.25;1271753;23;1892;-64
2023/02/25 03:23:58;;;;;;;;;;;;;;;11.23;70.43;100518.72;1272053;23;631;-64
2023/02/25 03:24:49;;;;;;;;;;;;;;;11.24;71.39;100517.75;1270826;23;623;-64
2023/02/25 03:25:46;;;;;;;;;;;;;;;11.24;70.65;100519.56;1271966;23;677;-64
2023/02/25 03:26:37;;;;;;;;;;;;;;;11.23;70.19;100513.38;1271079;23;721;-64
2023/02/25 03:27:27;;;;;;;;;;;;;;;11.24;70.68;100522.22;1272654;23;646;-63
2023/02/25 03:28:18;;;;;;;;;;;;;;;11.22;70.85;100517.00;1270801;23;670;-63
2023/02/25 03:29:08;;;;;;;;;;;;;;;11.24;71.21;100520.41;1272811;23;1057;-63
2023/02/25 03:29:58;;;;;;;;;;;;;;;11.23;70.44;100518.72;1272778;23;657;-63
2023/02/25 03:30:49;;;;;;;;;;;;;;;11.23;71.22;100518.72;1271833;23;611;-63
2023/02/25 03:31:39;;;;;;;;;;;;;;;11.22;71.11;100522.34;1272599;23;712;-64
2023/02/25 03:32:30;;;;;;;;;;;;;;;11.22;70.96;100521.47;1271666;23;603;-63
2023/02/25 03:33:20;;;;;;;;;;;;;;;11.23;70.72;100524.03;1271930;23;650;-65
2023/02/25 03:34:11;;;;;;;;;;;;;;;11.22;71.22;100522.34;1272099;23;685;-64
2023/02/25 03:35:02;;;;;;;;;;;;;;;11.23;71.31;100524.03;1271737;23;666;-64
2023/02/25 03:35:52;;;;;;;;;;;;;;;11.24;70.60;100524.88;1271059;23;613;-64
2023/02/25 03:36:42;;;;;;;;;;;;;;;11.23;70.59;100524.03;1271164;23;599;-64
2023/02/25 03:37:33;;;;;;;;;;;;;;;11.24;70.64;100525.75;1271803;23;627;-64
2023/02/25 03:38:23;;;;;;;;;;;;;;;11.23;70.62;100525.84;1271999;23;649;-63
2023/02/25 03:39:14;;;;;;;;;;;;;;;11.22;70.62;100527.66;1271629;23;657;-63
2023/02/25 03:40:10;;;;;;;;;;;;;;;11.22;70.96;100525.00;1271862;23;617;-65
2023/02/25 03:41:00;;;;;;;;;;;;;;;11.20;70.46;100523.41;1272640;23;670;-64
2023/02/25 03:41:51;;;;;;;;;;;;;;;11.20;71.35;100526.06;1272621;23;727;-63
2023/02/25 03:42:41;;;;;;;;;;;;;;;11.19;70.65;100524.38;1271711;23;630;-64
2023/02/25 03:43:31;;;;;;;;;;;;;;;11.18;70.86;100526.19;1272043;23;673;-63
2023/02/25 03:44:22;;;;;;;;;;;;;;;11.20;70.73;100534.06;1270727;23;658;-63
2023/02/25 03:45:12;;;;;;;;;;;;;;;11.19;71.10;100530.56;1271849;23;681;-63
2023/02/25 03:46:03;;;;;;;;;;;;;;;11.19;71.31;100532.38;1271632;23;615;-63
2023/02/25 03:46:53;;;;;;;;;;;;;;;11.20;71.03;100528.75;1271817;23;721;-64
2023/02/25 03:47:44;;;;;;;;;;;;;;;11.20;70.39;100532.25;1271751;23;646;-64
2023/02/25 03:48:34;;;;;;;;;;;;;;;11.19;70.35;100532.38;1272622;23;614;-64
2023/02/25 03:49:24;;;;;;;;;;;;;;;11.19;70.52;100533.22;1271971;23;677;-64
2023/02/25 03:50:15;;;;;;;;;;;;;;;11.19;71.12;100535.88;1271750;23;606;-64
2023/02/25 03:51:05;;;;;;;;;;;;;;;11.19;71.17;100535.03;1271813;23;627;-65
2023/02/25 03:51:56;;;;;;;;;;;;;;;11.19;70.60;100533.22;1272147;23;689;-64
2023/02/25 03:52:47;;;;;;;;;;;;;;;11.19;71.13;100537.69;1270324;23;756;-64
2023/02/25 03:53:37;;;;;;;;;;;;;;;11.17;70.51;100535.16;1270913;23;646;-64
2023/02/25 03:54:27;;;;;;;;;;;;;;;11.18;70.29;100538.66;1271411;23;701;-63
2023/02/25 03:55:18;;;;;;;;;;;;;;;11.18;70.30;100536.00;1270819;23;626;-63
2023/02/25 03:56:08;;;;;;;;;;;;;;;11.17;71.17;100535.16;1272810;23;676;-64
2023/02/25 03:56:59;;;;;;;;;;;;;;;11.17;70.91;100537.81;1270591;23;633;-64
2023/02/25 03:57:49;;;;;;;;;;;;;;;11.16;71.17;100533.44;1271749;23;657;-64
2023/02/25 03:58:40;;;;;;;;;;;;;;;11.15;70.44;100547.72;1272659;23;639;-63
2023/02/25 03:59:30;;;;;;;;;;;;;;;11.16;70.54;100549.44;1272745;23;628;-64
2023/02/25 04:00:21;;;;;;;;;;;;;;;11.16;70.68;100549.44;1271908;23;637;-64
2023/02/25 04:01:11;;;;;;;;;;;;;;;11.15;70.48;100550.41;1271269;23;704;-64
2023/02/25 04:02:02;;;;;;;;;;;;;;;11.15;70.55;100550.41;1270650;23;665;-63
2023/02/25 04:02:52;;;;;;;;;;;;;;;11.16;70.53;100546.78;1271139;23;689;-63
2023/02/25 04:03:43;;;;;;;;;;;;;;;11.18;71.20;100544.00;1272549;23;610;-63
2023/02/25 04:04:33;;;;;;;;;;;;;;;11.15;70.68;100545.06;1272657;23;649;-63
2023/02/25 04:05:26;;;;;;;;;;;;;;;11.17;70.99;100551.16;1270713;23;724;-63
2023/02/25 04:06:17;;;;;;;;;;;;;;;11.17;70.36;100540.47;1271739;23;665;-63
2023/02/25 04:07:07;;;;;;;;;;;;;;;11.16;70.67;100548.59;1271758;23;653;-64
2023/02/25 04:07:58;;;;;;;;;;;;;;;11.15;70.98;100550.41;1271467;23;627;-64
2023/02/25 04:08:48;;;;;;;;;;;;;;;11.14;71.19;100549.53;1271094;23;618;-64
2023/02/25 04:09:39;;;;;;;;;;;;;;;11.16;70.66;100548.59;1271791;23;649;-64
2023/02/25 04:10:29;;;;;;;;;;;;;;;11.16;70.90;100548.59;1271666;23;614;-64
2023/02/25 04:11:19;;;;;;;;;;;;;;;11.15;70.40;100553.06;1271089;23;685;-63
2023/02/25 04:12:10;;;;;;;;;;;;;;;11.15;70.23;100553.06;1271590;23;579;-63
2023/02/25 04:13:00;;;;;;;;;;;;;;;11.14;70.38;100554.03;1271837;23;648;-63
2023/02/25 04:13:51;;;;;;;;;;;;;;;11.15;70.45;100553.06;1270613;23;626;-64
2023/02/25 04:14:41;;;;;;;;;;;;;;;11.14;70.91;100546.03;1271632;23;650;-64
2023/02/25 04:15:31;;;;;;;;;;;;;;;11.14;70.45;100552.22;1271880;23;685;-64
2023/02/25 04:16:22;;;;;;;;;;;;;;;11.14;70.33;100552.22;1271589;23;746;-63
2023/02/25 04:17:12;;;;;;;;;;;;;;;11.13;70.27;100555.84;1271868;23;649;-63
2023/02/25 04:18:03;;;;;;;;;;;;;;;11.14;71.15;100557.53;1271529;23;1008;-64
2023/02/25 04:18:53;;;;;;;;;;;;;;;11.11;71.02;100555.09;1272627;23;626;-64
2023/02/25 04:19:44;;;;;;;;;;;;;;;11.11;71.23;100551.56;1271832;23;673;-64
2023/02/25 04:20:34;;;;;;;;;;;;;;;11.10;70.88;100556.09;1272432;23;1241;-63
2023/02/25 04:21:24;;;;;;;;;;;;;;;11.09;70.80;100558.84;1272740;23;605;-63
2023/02/25 04:22:15;;;;;;;;;;;;;;;11.09;70.59;100556.19;1271573;23;593;-64
2023/02/25 04:23:05;;;;;;;;;;;;;;;11.09;71.48;100562.38;1271034;23;1952;-63
2023/02/25 04:23:56;;;;;;;;;;;;;;;11.10;70.53;100561.41;1270647;23;642;-64
2023/02/25 04:24:46;;;;;;;;;;;;;;;11.10;71.16;100566.75;1271623;23;582;-63
2023/02/25 04:25:36;;;;;;;;;;;;;;;11.11;70.92;100567.56;1271961;23;685;-63
2023/02/25 04:26:27;;;;;;;;;;;;;;;11.12;70.41;100569.28;1272598;23;640;-64